createdAt,value
2019-02-09T00:32:57.413Z,1.00
2019-02-09T00:49:45.668Z,1.00
2019-02-09T01:37:34.831Z,99.90
2019-02-09T01:40:43.766Z,99.90
2019-02-09T01:43:31.940Z,99.90
2019-02-09T02:00:40.673Z,99.90
2019-02-09T02:06:16.577Z,99.90
2019-02-09T02:17:15.839Z,99.90
2019-02-09T02:20:24.669Z,99.90
2019-02-09T02:46:36.986Z,99.90
2019-02-09T02:58:28.341Z,99.90
2019-02-09T03:43:19.008Z,1.00
2019-02-09T05:03:52.519Z,99.90
2019-02-09T05:33:28.364Z,1.00
2019-02-09T05:42:09.042Z,99.90
2019-02-09T05:47:44.900Z,1.00
2019-02-09T07:32:08.736Z,20.30
2019-02-09T07:38:02.528Z,59.20
2019-02-09T07:46:54.798Z,85.30
2019-02-09T07:49:35.890Z,81.90
2019-02-09T07:52:16.598Z,93.50
2019-02-09T08:18:55.959Z,99.90
2019-02-09T08:21:37.511Z,99.90
2019-02-09T08:33:14.883Z,99.90
2019-02-09T08:56:47.729Z,99.80
2019-02-09T09:11:23.872Z,68.70
2019-02-09T09:14:04.563Z,36.10
2019-02-09T09:22:43.465Z,1.00
2019-02-09T09:25:24.312Z,1.00
2019-02-09T09:58:08.414Z,1.00
2019-02-09T10:00:49.232Z,1.00
2019-02-09T10:36:19.500Z,2.00
2019-02-09T10:51:10.904Z,1.00
2019-02-09T10:53:52.347Z,1.00
2019-02-09T11:47:15.218Z,99.90
2019-02-09T11:49:56.714Z,99.90
2019-02-09T12:07:31.817Z,1.00
2019-02-09T12:10:13.093Z,1.00
2019-02-09T12:27:48.239Z,99.90
2019-02-09T12:36:27.413Z,1.00
2019-02-09T12:39:10.865Z,1.00
2019-02-09T12:47:50.050Z,99.90
2019-02-09T12:50:30.469Z,39.90
2019-02-09T12:53:11.825Z,61.00
2019-02-09T12:55:53.233Z,99.90
2019-02-09T13:07:34.289Z,99.90
2019-02-09T13:12:52.938Z,99.90
2019-02-09T13:29:20.920Z,1.00
2019-02-09T13:31:49.675Z,13.30
2019-02-09T13:34:18.424Z,99.90
2019-02-09T13:36:47.216Z,1.00
2019-02-09T13:39:15.954Z,47.80
2019-02-09T13:41:44.730Z,1.00
2019-02-09T13:44:13.863Z,1.00
2019-02-09T13:46:42.713Z,1.00
2019-02-09T13:49:11.475Z,99.90
2019-02-09T13:51:40.272Z,99.90
2019-02-09T13:54:09.130Z,1.00
2019-02-09T13:56:37.895Z,1.00
2019-02-09T13:59:07.184Z,1.00
2019-02-09T14:01:35.996Z,99.90
2019-02-09T14:04:05.515Z,46.30
2019-02-09T14:06:34.292Z,1.00
2019-02-09T14:09:04.484Z,9.00
2019-02-09T14:11:33.367Z,1.00
2019-02-09T14:14:02.617Z,85.60
2019-02-09T14:16:38.638Z,1.00
2019-02-09T14:19:02.680Z,99.90
2019-02-09T14:21:31.472Z,98.70
2019-02-09T14:24:00.304Z,1.00
2019-02-09T14:26:29.055Z,99.90
2019-02-09T14:28:57.824Z,99.90
2019-02-09T14:31:27.198Z,99.90
2019-02-09T14:33:55.969Z,99.90
2019-02-09T14:36:26.660Z,99.90
2019-02-09T14:38:55.677Z,99.90
2019-02-09T14:41:25.298Z,99.90
2019-02-09T14:43:54.171Z,99.90
2019-02-09T14:46:22.973Z,99.90
2019-02-09T14:48:51.686Z,99.90
2019-02-09T14:51:20.480Z,99.90
2019-02-09T14:53:49.313Z,99.90
2019-02-09T14:56:18.094Z,99.90
2019-02-09T14:58:46.836Z,99.90
2019-02-09T15:01:15.600Z,99.90
2019-02-09T15:03:44.508Z,99.90
2019-02-09T15:06:13.295Z,99.90
2019-02-09T15:08:42.075Z,99.90
2019-02-09T15:11:10.841Z,99.90
2019-02-09T15:13:39.608Z,99.90
2019-02-09T15:16:14.513Z,99.90
2019-02-09T15:18:43.279Z,99.90
2019-02-09T15:21:14.567Z,99.90
2019-02-09T15:23:43.393Z,99.90
2019-02-09T15:26:12.752Z,99.90
2019-02-09T15:28:42.923Z,99.90
2019-02-09T15:31:11.806Z,99.90
2019-02-09T15:33:40.552Z,99.90
2019-02-09T15:36:09.324Z,99.90
2019-02-09T15:38:38.125Z,99.90
2019-02-09T15:41:06.899Z,99.90
2019-02-09T15:43:35.715Z,99.90
2019-02-09T15:46:05.279Z,99.90
2019-02-09T15:48:34.133Z,99.90
2019-02-09T15:51:02.969Z,99.90
2019-02-09T15:53:31.796Z,99.90
2019-02-09T15:56:00.545Z,99.90
2019-02-09T15:58:29.311Z,99.90
2019-02-09T16:00:58.052Z,99.90
2019-02-09T16:03:26.798Z,99.90
2019-02-09T16:05:55.561Z,99.90
2019-02-09T16:08:24.384Z,99.90
2019-02-09T16:10:53.170Z,99.90
2019-02-09T16:13:21.942Z,99.90
2019-02-09T16:15:50.737Z,99.90
2019-02-09T16:18:19.505Z,99.90
2019-02-09T16:20:48.410Z,99.90
2019-02-09T16:23:17.301Z,99.90
2019-02-09T16:25:46.080Z,99.90
2019-02-09T16:28:14.817Z,99.90
2019-02-09T16:30:43.560Z,99.90
2019-02-09T16:33:12.305Z,99.90
2019-02-09T16:35:41.087Z,99.90
2019-02-09T16:38:09.989Z,99.90
2019-02-09T16:40:38.762Z,99.90
2019-02-09T16:43:07.545Z,99.90
2019-02-09T16:45:38.512Z,99.90
2019-02-09T16:48:10.347Z,99.90
2019-02-09T16:50:39.304Z,1.00
2019-02-09T16:53:08.272Z,1.00
2019-02-09T16:55:37.100Z,1.00
2019-02-09T16:58:06.890Z,1.00
2019-02-09T17:00:41.110Z,1.00
2019-02-09T17:03:11.684Z,1.00
2019-02-09T17:05:41.040Z,23.90
2019-02-09T17:08:10.152Z,99.90
2019-02-09T17:10:38.949Z,99.90
2019-02-09T17:13:08.413Z,99.90
2019-02-09T17:15:37.499Z,99.90
2019-02-09T17:18:07.397Z,99.90
2019-02-09T17:20:36.677Z,1.00
2019-02-09T17:23:05.853Z,99.90
2019-02-09T17:25:42.376Z,99.90
2019-02-09T17:28:11.120Z,1.00
2019-02-09T17:30:40.236Z,1.00
2019-02-09T17:33:09.038Z,99.90
2019-02-09T17:35:37.801Z,99.90
2019-02-09T17:38:07.073Z,99.90
2019-02-09T17:40:47.029Z,99.90
2019-02-09T17:43:15.962Z,99.90
2019-02-09T17:45:53.655Z,99.90
2019-02-09T17:48:22.461Z,19.20
2019-02-09T17:50:51.229Z,34.70
2019-02-09T17:53:20.011Z,88.20
2019-02-09T17:55:48.943Z,99.90
2019-02-09T17:58:17.787Z,1.00
2019-02-09T18:00:48.246Z,1.00
2019-02-09T18:03:16.980Z,1.00
2019-02-09T18:05:45.724Z,15.60
2019-02-09T18:08:14.665Z,54.90
2019-02-09T18:10:43.431Z,71.40
2019-02-09T18:13:12.176Z,90.40
2019-02-09T18:15:40.968Z,90.80
2019-02-09T18:18:09.692Z,95.50
2019-02-09T18:20:38.517Z,95.70
2019-02-09T18:23:07.281Z,90.20
2019-02-09T18:25:36.094Z,91.70
2019-02-09T18:28:05.722Z,84.60
2019-02-09T18:30:34.670Z,81.80
2019-02-09T18:33:03.792Z,81.70
2019-02-09T18:35:32.822Z,77.20
2019-02-09T18:38:02.380Z,61.70
2019-02-09T18:40:31.115Z,60.30
2019-02-09T18:43:00.201Z,58.70
2019-02-09T18:45:33.038Z,41.40
2019-02-09T18:48:02.416Z,21.50
2019-02-09T18:50:32.250Z,15.40
2019-02-09T18:53:02.273Z,4.50
2019-02-09T18:55:32.050Z,4.50
2019-02-09T18:58:01.081Z,1.00
2019-02-09T19:00:33.082Z,1.00
2019-02-09T19:03:02.386Z,1.00
2019-02-09T19:05:31.349Z,1.00
2019-02-09T19:08:00.145Z,1.00
2019-02-09T19:10:29.433Z,1.00
2019-02-09T19:12:58.571Z,1.00
2019-02-09T19:15:28.253Z,1.00
2019-02-09T19:17:58.401Z,1.00
2019-02-09T19:20:39.072Z,1.00
2019-02-09T19:23:08.434Z,1.00
2019-02-09T19:25:37.290Z,1.00
2019-02-09T19:28:06.478Z,1.00
2019-02-09T19:30:35.650Z,1.00
2019-02-09T19:33:05.750Z,1.00
2019-02-09T19:35:35.301Z,1.00
2019-02-09T19:38:04.420Z,1.00
2019-02-09T19:40:33.244Z,1.00
2019-02-09T19:43:01.989Z,1.00
2019-02-09T19:45:32.849Z,1.00
2019-02-09T19:48:01.773Z,1.00
2019-02-09T19:50:30.508Z,1.00
2019-02-09T19:52:59.325Z,1.00
2019-02-09T19:55:30.385Z,1.00
2019-02-09T19:57:59.223Z,1.00
2019-02-09T20:00:30.931Z,1.00
2019-02-09T20:02:59.786Z,1.00
2019-02-09T20:05:28.908Z,99.90
2019-02-09T20:07:57.723Z,99.90
2019-02-09T20:10:34.880Z,99.90
2019-02-09T20:13:04.271Z,99.90
2019-02-09T20:15:33.066Z,99.90
2019-02-09T20:18:01.977Z,99.90
2019-02-09T20:20:30.743Z,99.90
2019-02-09T20:22:59.541Z,99.90
2019-02-09T20:25:28.735Z,99.90
2019-02-09T20:27:57.532Z,99.90
2019-02-09T20:30:37.770Z,99.90
2019-02-09T20:33:06.864Z,99.90
2019-02-09T20:35:36.120Z,99.90
2019-02-09T20:38:07.030Z,1.00
2019-02-09T20:40:37.894Z,1.00
2019-02-09T20:43:08.770Z,1.00
2019-02-09T20:45:37.519Z,1.00
2019-02-09T20:48:06.599Z,1.00
2019-02-09T20:50:35.817Z,1.00
2019-02-09T20:53:05.452Z,1.00
2019-02-09T20:55:34.497Z,1.00
2019-02-09T20:58:04.398Z,1.00
2019-02-09T21:00:33.628Z,1.00
2019-02-09T21:03:02.582Z,1.00
2019-02-09T21:05:36.597Z,1.00
2019-02-09T21:08:02.113Z,1.00
2019-02-09T21:10:33.625Z,1.00
2019-02-09T21:13:02.377Z,1.00
2019-02-09T21:15:31.694Z,1.00
2019-02-09T21:18:01.923Z,1.00
2019-02-09T21:20:31.120Z,1.00
2019-02-09T21:23:00.273Z,1.00
2019-02-09T21:25:41.269Z,1.00
2019-02-09T21:28:10.041Z,1.00
2019-02-09T21:30:39.585Z,1.00
2019-02-09T21:33:08.768Z,1.00
2019-02-09T21:35:43.680Z,1.00
2019-02-09T21:38:08.151Z,1.00
2019-02-09T21:40:37.164Z,1.00
2019-02-09T21:43:06.841Z,1.00
2019-02-09T21:45:35.593Z,1.00
2019-02-09T21:48:05.069Z,1.00
2019-02-09T21:50:38.512Z,1.00
2019-02-09T21:53:10.068Z,1.00
2019-02-09T21:55:38.901Z,1.00
2019-02-09T21:58:08.680Z,1.00
2019-02-09T22:00:44.987Z,1.00
2019-02-09T22:03:14.377Z,1.00
2019-02-09T22:05:43.214Z,1.00
2019-02-09T22:08:19.615Z,1.00
2019-02-09T22:10:45.104Z,1.00
2019-02-09T22:13:13.887Z,1.00
2019-02-09T22:15:42.748Z,1.00
2019-02-09T22:18:13.049Z,1.00
2019-02-09T22:20:41.881Z,1.00
2019-02-09T22:23:10.641Z,1.00
2019-02-09T22:25:39.458Z,1.00
2019-02-09T22:28:08.186Z,1.00
2019-02-09T22:30:37.281Z,1.00
2019-02-09T22:33:06.175Z,1.00
2019-02-09T22:35:35.433Z,1.00
2019-02-09T22:38:05.024Z,1.00
2019-02-09T22:40:36.850Z,1.00
2019-02-09T22:43:06.451Z,1.00
2019-02-09T22:45:35.589Z,1.00
2019-02-09T22:48:06.589Z,1.00
2019-02-09T22:50:43.928Z,1.00
2019-02-09T22:53:12.678Z,1.00
2019-02-09T22:55:41.516Z,1.00
2019-02-09T22:58:10.361Z,1.00
2019-02-09T23:00:49.805Z,1.00
2019-02-09T23:03:19.077Z,1.00
2019-02-09T23:06:08.331Z,1.00
2019-02-09T23:08:37.146Z,1.00
2019-02-09T23:11:05.904Z,1.00
2019-02-09T23:13:34.640Z,1.00
2019-02-09T23:16:03.410Z,1.00
2019-02-09T23:18:32.208Z,1.00
2019-02-09T23:21:01.004Z,1.00
2019-02-09T23:23:29.778Z,1.00
2019-02-09T23:25:58.563Z,1.00
2019-02-09T23:28:27.389Z,1.00
2019-02-09T23:30:56.196Z,1.00
2019-02-09T23:33:24.952Z,1.00
2019-02-09T23:35:53.728Z,1.00
2019-02-09T23:38:22.503Z,1.00
2019-02-09T23:40:51.350Z,1.00
2019-02-09T23:43:20.109Z,1.00
2019-02-09T23:45:48.829Z,1.00
2019-02-09T23:48:17.600Z,1.00
2019-02-09T23:50:46.332Z,1.00
2019-02-09T23:53:15.096Z,1.00
2019-02-09T23:55:43.925Z,1.00
2019-02-09T23:58:12.701Z,1.00
